Time;durP1;ratioP1;P1;durP2;ratioP2;P2;SDS_P1;SDS_P2;PMS_P1;PMS_P2;Temp;Humidity;BMP_temperature;BMP_pressure;BME280_temperature;BME280_humidity;BME280_pressure;Samples;Min_cycle;Max_cycle;Signal;HPM_P1;HPM_P2
2023/08/29 00:00:54;;;;;;;0.20;0.20;;;;;;;35.85;35.24;99610.78;7396446;19;20485;-86
2023/08/29 00:03:20;;;;;;;0.10;0.10;;;;;;;36.43;34.64;99613.25;7398180;19;20022;-87
2023/08/29 00:05:46;;;;;;;1.75;0.40;;;;;;;36.51;34.68;99609.94;7397435;19;20041;-86
2023/08/29 00:08:12;;;;;;;0.20;0.20;;;;;;;37.16;33.93;99613.94;7397255;19;20029;-86
2023/08/29 00:10:38;;;;;;;0.10;0.10;;;;;;;38.66;32.30;99611.84;7396161;19;20014;-87
2023/08/29 00:13:04;;;;;;;0.90;0.25;;;;;;;38.77;32.02;99606.38;7397141;19;20022;-88
2023/08/29 00:15:30;;;;;;;0.25;0.20;;;;;;;38.81;32.19;99601.44;7397219;19;20011;-87
2023/08/29 00:17:56;;;;;;;0.30;0.20;;;;;;;38.92;31.96;99605.38;7397752;19;20077;-87
2023/08/29 00:20:23;;;;;;;0.10;0.10;;;;;;;39.06;31.51;99603.63;7397257;19;20363;-87
2023/08/29 00:22:49;;;;;;;0.50;0.22;;;;;;;39.24;31.26;99600.50;7397643;19;20049;-87
2023/08/29 00:25:15;;;;;;;11.20;0.50;;;;;;;39.34;31.13;99600.78;7398093;19;20015;-87
2023/08/29 00:27:41;;;;;;;0.10;0.00;;;;;;;39.26;30.91;99591.81;7396928;19;20011;-88
2023/08/29 00:30:08;;;;;;;1.90;0.10;;;;;;;39.27;31.22;99599.13;7393519;19;20033;-87
2023/08/29 00:32:34;;;;;;;1.65;0.45;;;;;;;39.26;30.98;99583.84;7397745;19;20018;-87
2023/08/29 00:35:03;;;;;;;0.10;0.10;;;;;;;39.56;30.96;99583.94;7401240;19;20040;-86
2023/08/29 00:37:31;;;;;;;0.10;0.10;;;;;;;39.70;30.49;99593.03;7396823;19;20025;-86
2023/08/29 00:39:57;;;;;;;0.20;0.20;;;;;;;39.54;30.50;99583.84;7394723;19;20014;-88
2023/08/29 00:42:23;;;;;;;4.13;0.95;;;;;;;39.84;30.31;99573.00;7395986;19;20018;-86
2023/08/29 00:44:49;;;;;;;0.20;0.20;;;;;;;40.02;29.78;99569.84;7398540;19;20015;-86
2023/08/29 00:47:16;;;;;;;0.10;0.03;;;;;;;37.19;32.61;99569.03;7397468;19;20019;-86
2023/08/29 00:49:43;;;;;;;0.10;0.10;;;;;;;40.25;29.83;99571.09;7395799;19;20010;-88
2023/08/29 00:52:09;;;;;;;0.10;0.10;;;;;;;40.43;29.33;99572.31;7398925;19;20018;-88
2023/08/29 00:54:35;;;;;;;1.98;0.30;;;;;;;40.31;29.55;99566.16;7399988;19;20025;-88
2023/08/29 00:57:02;;;;;;;1.08;0.38;;;;;;;38.66;30.64;99568.19;7396794;19;20505;-89
2023/08/29 00:59:29;;;;;;;0.20;0.10;;;;;;;39.78;30.03;99569.94;7396513;19;20018;-88
2023/08/29 01:01:57;;;;;;;0.10;0.10;;;;;;;39.81;29.69;99571.47;7396311;19;20017;-87
2023/08/29 01:04:23;;;;;;;0.10;0.00;;;;;;;39.70;29.41;99563.16;7400027;19;20018;-90
2023/08/29 01:06:50;;;;;;;0.10;0.10;;;;;;;39.29;29.95;99573.69;7396678;19;20026;-89
2023/08/29 01:09:16;;;;;;;6.65;1.23;;;;;;;38.72;30.37;99582.22;7394228;19;20015;-89
2023/08/29 01:11:54;;;;;;;0.63;0.10;;;;;;;35.15;34.31;99575.81;7394744;19;20010;-89
2023/08/29 01:14:51;;;;;;;0.28;0.17;;;;;;;38.62;30.89;99573.88;7396023;19;20010;-89
2023/08/29 01:17:28;;;;;;;0.82;0.55;;;;;;;38.41;30.95;99579.75;7393763;19;20006;-89
2023/08/29 01:19:55;;;;;;;0.25;0.20;;;;;;;38.60;30.54;99575.97;7394546;19;20021;-89
2023/08/29 01:22:24;;;;;;;0.10;0.10;;;;;;;34.76;35.79;99573.31;7397865;19;20006;-88
2023/08/29 01:25:05;;;;;;;0.22;0.22;;;;;;;38.38;31.20;99570.22;7398951;19;20022;-88
2023/08/29 01:27:34;;;;;;;0.90;0.10;;;;;;;39.00;30.88;99564.81;7395021;19;20353;-87
2023/08/29 01:30:03;;;;;;;0.10;0.10;;;;;;;38.95;30.72;99569.03;7394013;19;20070;-88
2023/08/29 01:32:30;;;;;;;0.32;0.10;;;;;;;39.63;29.82;99559.34;7396196;19;20014;-85
2023/08/29 01:34:57;;;;;;;0.10;0.10;;;;;;;39.65;29.54;99562.31;7396378;19;20390;-86
2023/08/29 01:37:24;;;;;;;6.60;1.00;;;;;;;39.65;29.98;99555.72;7394621;19;20022;-86
2023/08/29 01:39:50;;;;;;;0.10;0.10;;;;;;;39.57;29.80;99556.25;7391327;19;20026;-86
2023/08/29 01:42:16;;;;;;;2.05;1.08;;;;;;;39.59;29.65;99552.66;7393605;19;20014;-88
2023/08/29 01:44:42;;;;;;;1.30;0.17;;;;;;;39.74;29.77;99555.25;7398554;19;20497;-86
2023/08/29 01:47:08;;;;;;;0.63;0.30;;;;;;;39.77;29.47;99550.94;7394162;19;20022;-88
2023/08/29 01:49:35;;;;;;;16.25;0.30;;;;;;;29.38;39.92;99562.38;7391466;19;20014;-87
2023/08/29 01:52:01;;;;;;;0.10;0.10;;;;;;;30.47;41.77;99566.75;7392939;19;20469;-88
2023/08/29 01:54:27;;;;;;;0.10;0.10;;;;;;;36.99;33.60;99553.75;7396201;19;20015;-87
2023/08/29 01:56:56;;;;;;;0.10;0.10;;;;;;;36.98;33.52;99546.47;7393130;19;20019;-87
2023/08/29 01:59:22;;;;;;;0.10;0.10;;;;;;;38.98;31.31;99544.38;7391123;19;20022;-82
2023/08/29 02:01:49;;;;;;;0.10;0.10;;;;;;;39.48;30.50;99542.88;7396591;19;20115;-85
2023/08/29 02:04:15;;;;;;;2.95;0.30;;;;;;;28.34;41.84;99553.63;7394757;19;20026;-86
2023/08/29 02:06:44;;;;;;;0.10;0.00;;;;;;;29.12;49.33;99552.72;7394739;19;20746;-85
2023/08/29 02:09:11;;;;;;;0.40;0.20;;;;;;;36.56;35.46;99536.13;7391655;19;20014;-85
2023/08/29 02:11:37;;;;;;;0.10;0.10;;;;;;;38.08;32.66;99531.41;7390594;19;20354;-85
2023/08/29 02:14:03;;;;;;;0.10;0.10;;;;;;;38.65;32.08;99520.13;7392322;19;20017;-85
2023/08/29 02:16:31;;;;;;;0.10;0.08;;;;;;;39.09;31.50;99528.66;7390474;19;20465;-84
2023/08/29 02:18:57;;;;;;;2.00;0.28;;;;;;;38.92;31.20;99523.81;7391056;19;20027;-86
2023/08/29 02:21:23;;;;;;;0.35;0.17;;;;;;;39.28;30.78;99519.78;7392700;19;20078;-85
2023/08/29 02:23:49;;;;;;;0.10;0.10;;;;;;;39.42;30.41;99516.47;7396123;19;20053;-86
2023/08/29 02:26:16;;;;;;;0.52;0.25;;;;;;;38.01;31.10;99518.09;7391861;19;20014;-85
2023/08/29 02:28:42;;;;;;;0.10;0.00;;;;;;;39.15;30.64;99508.47;7390100;19;20017;-85
2023/08/29 02:31:09;;;;;;;0.15;0.10;;;;;;;39.15;30.49;99511.38;7390335;19;20015;-85
2023/08/29 02:33:37;;;;;;;0.80;0.20;;;;;;;39.27;30.28;99505.88;7395595;19;20013;-85
2023/08/29 02:36:05;;;;;;;12.25;0.75;;;;;;;39.11;30.50;99509.09;7392080;19;20360;-85
2023/08/29 02:38:35;;;;;;;0.10;0.10;;;;;;;39.85;29.85;99495.72;7391953;19;20017;-84
2023/08/29 02:41:02;;;;;;;0.52;0.52;;;;;;;40.16;29.57;99502.28;7389363;19;20034;-85
2023/08/29 02:43:28;;;;;;;1.75;0.15;;;;;;;40.38;28.90;99488.19;7391697;19;20018;-85
2023/08/29 02:45:55;;;;;;;0.10;0.10;;;;;;;40.42;28.88;99488.31;7391604;19;20354;-86
2023/08/29 02:48:21;;;;;;;0.05;0.05;;;;;;;40.05;28.80;99493.31;7392197;19;20010;-85
2023/08/29 02:50:50;;;;;;;0.30;0.30;;;;;;;39.89;28.62;99487.09;7389034;19;20026;-85
2023/08/29 02:53:16;;;;;;;0.82;0.13;;;;;;;39.71;28.86;99477.16;7394260;19;20014;-85
2023/08/29 02:55:43;;;;;;;0.80;0.28;;;;;;;39.93;28.79;99481.34;7390858;19;20379;-85
2023/08/29 02:58:09;;;;;;;0.45;0.10;;;;;;;39.33;28.78;99480.53;7392642;19;20021;-85
2023/08/29 03:00:35;;;;;;;0.20;0.20;;;;;;;40.03;28.76;99467.00;7391538;19;20562;-85
2023/08/29 03:03:04;;;;;;;0.30;0.30;;;;;;;40.19;28.54;99465.91;7392610;19;20344;-85
2023/08/29 03:05:31;;;;;;;0.13;0.10;;;;;;;40.36;28.47;99467.72;7396018;19;20017;-85
2023/08/29 03:07:58;;;;;;;0.10;0.00;;;;;;;40.36;28.10;99467.72;7391282;19;20526;-85
2023/08/29 03:10:24;;;;;;;0.47;0.10;;;;;;;40.35;28.01;99458.22;7389149;19;20025;-85
2023/08/29 03:12:51;;;;;;;0.22;0.20;;;;;;;31.83;36.01;99481.47;7390039;19;20058;-86
2023/08/29 03:15:18;;;;;;;0.10;0.00;;;;;;;27.52;44.86;99488.19;7394387;19;20024;-86
2023/08/29 03:17:44;;;;;;;0.17;0.17;;;;;;;26.89;47.95;99496.97;7390840;19;20019;-85
2023/08/29 03:20:11;;;;;;;1.40;0.35;;;;;;;26.64;50.00;99487.13;7389781;19;20021;-85
2023/08/29 03:22:38;;;;;;;0.10;0.10;;;;;;;26.60;51.34;99490.38;7392756;19;20030;-85
2023/08/29 03:25:05;;;;;;;2.70;0.68;;;;;;;26.57;52.19;99494.47;7392821;19;20019;-85
2023/08/29 03:27:31;;;;;;;1.08;0.20;;;;;;;26.40;53.16;99485.94;7390197;19;20423;-85
2023/08/29 03:29:59;;;;;;;0.55;0.30;;;;;;;26.26;54.83;99484.84;7389841;19;20022;-85
2023/08/29 03:32:25;;;;;;;1.00;0.65;;;;;;;26.33;55.13;99490.44;7392773;19;20084;-85
2023/08/29 03:34:53;;;;;;;7.65;0.52;;;;;;;26.41;55.98;99490.31;7391629;19;20018;-85
2023/08/29 03:37:19;;;;;;;0.30;0.30;;;;;;;26.37;57.06;99487.16;7389461;19;20014;-85
2023/08/29 03:39:45;;;;;;;0.50;0.10;;;;;;;26.40;57.20;99485.94;7390967;19;20015;-85
2023/08/29 03:42:11;;;;;;;0.20;0.10;;;;;;;26.31;58.18;99478.13;7390313;19;20010;-85
2023/08/29 03:44:38;;;;;;;0.20;0.10;;;;;;;26.21;59.09;99468.72;7393014;19;20011;-85
2023/08/29 03:47:04;;;;;;;0.38;0.20;;;;;;;26.09;60.41;99473.50;7389050;19;20031;-85
2023/08/29 03:49:30;;;;;;;0.10;0.10;;;;;;;25.87;61.99;99463.13;7388309;19;20019;-85
2023/08/29 03:51:56;;;;;;;0.10;0.10;;;;;;;26.02;62.88;99462.91;7388602;19;20014;-85
2023/08/29 03:54:22;;;;;;;0.57;0.10;;;;;;;25.98;63.17;99454.03;7391013;19;20027;-85
2023/08/29 03:56:48;;;;;;;0.95;0.20;;;;;;;25.81;64.43;99457.69;7386957;19;20443;-85
2023/08/29 03:59:15;;;;;;;0.10;0.10;;;;;;;25.81;65.15;99460.53;7388535;19;20014;-85
2023/08/29 04:01:41;;;;;;;1.95;0.85;;;;;;;25.84;65.93;99458.59;7391005;19;20026;-85
2023/08/29 04:04:08;;;;;;;0.43;0.10;;;;;;;25.82;66.12;99461.28;7397321;19;20019;-85
2023/08/29 04:06:35;;;;;;;0.52;0.10;;;;;;;25.71;67.67;99462.56;7397421;19;20477;-84
2023/08/29 04:09:03;;;;;;;1.17;0.20;;;;;;;25.60;68.68;99462.34;7396065;19;20011;-85
2023/08/29 04:11:29;;;;;;;1.05;0.35;;;;;;;25.64;68.75;99457.75;7396225;19;20098;-85
2023/08/29 04:13:56;;;;;;;0.38;0.38;;;;;;;25.50;69.96;99462.28;7395494;19;20059;-85
2023/08/29 04:16:22;;;;;;;0.20;0.10;;;;;;;25.64;70.23;99460.59;7394288;19;20011;-85
2023/08/29 04:18:48;;;;;;;0.85;0.38;;;;;;;24.74;73.12;99470.81;7393394;19;20011;-85
2023/08/29 04:21:15;;;;;;;0.10;0.10;;;;;;;25.52;72.57;99460.34;7394800;19;20014;-84
2023/08/29 04:23:41;;;;;;;1.13;0.30;;;;;;;25.70;71.87;99454.59;7399179;19;20022;-85
2023/08/29 04:26:08;;;;;;;2.15;0.47;;;;;;;25.46;72.28;99459.09;7395282;19;20346;-84
2023/08/29 04:28:34;;;;;;;0.90;0.55;;;;;;;25.70;71.54;99454.59;7393658;19;20350;-85
2023/08/29 04:31:11;;;;;;;1.45;0.50;;;;;;;25.82;70.50;99456.34;7394681;19;20022;-85
2023/08/29 04:33:38;;;;;;;0.10;0.10;;;;;;;25.83;70.72;99448.53;7399887;19;20089;-84
2023/08/29 04:36:04;;;;;;;0.80;0.45;;;;;;;25.65;71.81;99450.66;7396771;19;20021;-84
2023/08/29 04:38:31;;;;;;;3.05;0.30;;;;;;;24.92;77.68;99449.59;7395761;19;20027;-83
2023/08/29 04:40:57;;;;;;;0.15;0.10;;;;;;;25.45;74.15;99446.94;7393132;19;20046;-84
2023/08/29 04:43:24;;;;;;;0.95;0.32;;;;;;;25.39;74.59;99442.81;7395596;19;20015;-84
2023/08/29 04:45:51;;;;;;;0.10;0.10;;;;;;;25.41;74.88;99448.66;7395453;19;20027;-84
2023/08/29 04:48:17;;;;;;;0.10;0.00;;;;;;;25.37;75.17;99446.25;7394093;19;20018;-84
2023/08/29 04:50:45;;;;;;;1.55;0.45;;;;;;;25.37;75.64;99440.53;7392537;19;20014;-84
2023/08/29 04:53:11;;;;;;;2.38;0.15;;;;;;;25.39;75.52;99449.25;7397990;19;20130;-84
2023/08/29 04:55:38;;;;;;;3.72;0.32;;;;;;;24.99;79.95;99451.63;7394120;19;20011;-84
2023/08/29 04:58:04;;;;;;;4.68;0.63;;;;;;;25.18;78.00;99440.41;7397670;19;20150;-84
2023/08/29 05:00:30;;;;;;;0.10;0.10;;;;;;;25.38;76.52;99435.59;7395152;19;20022;-84
2023/08/29 05:02:56;;;;;;;0.47;0.40;;;;;;;25.55;75.82;99436.34;7397381;19;20014;-84
2023/08/29 05:05:22;;;;;;;0.20;0.13;;;;;;;25.41;76.87;99440.88;7398798;19;20015;-84
2023/08/29 05:07:49;;;;;;;0.32;0.20;;;;;;;25.47;75.75;99438.53;7395274;19;20010;-84
2023/08/29 05:10:15;;;;;;;0.10;0.00;;;;;;;25.50;76.73;99437.38;7393217;19;20382;-85
2023/08/29 05:12:41;;;;;;;0.17;0.17;;;;;;;25.56;75.71;99435.00;7393849;19;20035;-85
2023/08/29 05:15:08;;;;;;;0.85;0.10;;;;;;;25.56;75.42;99429.31;7395660;19;20014;-86
2023/08/29 05:17:35;;;;;;;0.52;0.20;;;;;;;25.62;75.29;99428.28;7393848;19;20019;-83
2023/08/29 05:20:01;;;;;;;0.10;0.10;;;;;;;25.50;75.99;99420.25;7394845;19;20090;-83
2023/08/29 05:22:28;;;;;;;0.13;0.13;;;;;;;25.42;77.40;99424.56;7396793;19;20033;-83
2023/08/29 05:24:54;;;;;;;0.20;0.20;;;;;;;25.46;77.55;99422.78;7397654;19;20421;-83
2023/08/29 05:27:20;;;;;;;1.13;0.63;;;;;;;25.63;76.86;99421.22;7395187;19;20015;-83
2023/08/29 05:29:46;;;;;;;0.35;0.20;;;;;;;25.81;75.69;99419.84;7391823;19;20370;-83
2023/08/29 05:32:12;;;;;;;0.10;0.10;;;;;;;35.05;50.76;99403.16;7393230;19;20018;-83
2023/08/29 05:34:39;;;;;;;0.98;0.45;;;;;;;38.76;38.82;99398.13;7394651;19;20398;-83
2023/08/29 05:37:05;;;;;;;0.20;0.10;;;;;;;39.36;36.13;99399.72;7390628;19;20349;-84
2023/08/29 05:39:31;;;;;;;0.70;0.30;;;;;;;39.69;34.73;99402.03;7390052;19;20014;-83
2023/08/29 05:41:57;;;;;;;0.10;0.10;;;;;;;33.48;39.25;99418.22;7392863;19;20035;-84
2023/08/29 05:44:23;;;;;;;0.95;0.35;;;;;;;20.52;100.00;99437.69;7396459;19;20014;-83
2023/08/29 05:46:49;;;;;;;0.08;0.00;;;;;;;35.95;45.21;99399.63;7394640;19;20018;-84
2023/08/29 05:49:15;;;;;;;0.63;0.30;;;;;;;37.65;39.46;99403.50;7391510;19;20451;-84
2023/08/29 05:51:41;;;;;;;0.10;0.05;;;;;;;38.19;37.15;99393.56;7390369;19;20018;-84
2023/08/29 05:54:08;;;;;;;3.72;0.70;;;;;;;38.44;36.37;99398.69;7397910;19;20014;-84
2023/08/29 05:56:34;;;;;;;1.65;0.17;;;;;;;24.47;67.78;99425.09;7391740;19;20465;-84
2023/08/29 05:59:00;;;;;;;0.10;0.10;;;;;;;21.55;100.00;99429.59;7395970;19;20018;-84
2023/08/29 06:01:26;;;;;;;0.10;0.10;;;;;;;20.12;100.00;99431.50;7392203;19;20018;-84
2023/08/29 06:03:53;;;;;;;0.10;0.10;;;;;;;18.64;100.00;99443.44;7394367;19;20092;-84
2023/08/29 06:06:19;;;;;;;0.10;0.10;;;;;;;21.11;100.00;99439.44;7392086;19;20025;-84
2023/08/29 06:08:46;;;;;;;0.30;0.20;;;;;;;29.78;76.17;99410.06;7390668;19;20497;-84
2023/08/29 06:11:13;;;;;;;0.10;0.10;;;;;;;32.68;55.29;99424.22;7389966;19;20029;-84
2023/08/29 06:13:39;;;;;;;0.70;0.32;;;;;;;35.06;47.55;99412.59;7392115;19;20015;-83
2023/08/29 06:16:05;;;;;;;0.55;0.10;;;;;;;36.74;43.02;99411.25;7393280;19;20058;-83
2023/08/29 06:18:33;;;;;;;0.10;0.00;;;;;;;39.06;38.44;99410.59;7392345;19;20097;-84
2023/08/29 06:20:59;;;;;;;0.35;0.30;;;;;;;40.37;36.07;99413.75;7392392;19;20011;-84
2023/08/29 06:23:25;;;;;;;19.60;0.68;;;;;;;41.17;33.46;99412.44;7396263;19;20015;-82
2023/08/29 06:25:52;;;;;;;0.40;0.28;;;;;;;34.12;38.64;99426.41;7392234;19;20022;-84
2023/08/29 06:28:18;;;;;;;1.75;0.35;;;;;;;29.63;77.68;99430.59;7391849;19;20338;-84
2023/08/29 06:30:44;;;;;;;1.65;1.00;;;;;;;39.13;38.82;99418.09;7391130;19;20014;-84
2023/08/29 06:33:10;;;;;;;0.10;0.10;;;;;;;21.75;100.00;99442.13;7396348;19;20457;-84
2023/08/29 06:35:40;;;;;;;0.10;0.10;;;;;;;19.58;100.00;99449.97;7396385;19;20018;-84
2023/08/29 06:38:07;;;;;;;0.20;0.10;;;;;;;18.84;100.00;99453.31;7391021;19;20031;-84
2023/08/29 06:40:33;;;;;;;0.80;0.30;;;;;;;18.76;100.00;99455.25;7392881;19;20022;-84
2023/08/29 06:42:59;;;;;;;7.07;0.52;;;;;;;37.33;48.50;99422.78;7391522;19;20039;-83
2023/08/29 06:45:25;;;;;;;0.10;0.10;;;;;;;40.32;38.67;99420.94;7394943;19;20014;-84
2023/08/29 06:47:52;;;;;;;0.20;0.10;;;;;;;40.13;36.15;99417.63;7391152;19;20500;-84
2023/08/29 06:50:18;;;;;;;0.20;0.10;;;;;;;39.67;35.46;99418.72;7390218;19;20022;-83
2023/08/29 06:52:44;;;;;;;0.40;0.20;;;;;;;42.63;33.02;99421.94;7392250;19;20026;-84
2023/08/29 06:55:10;;;;;;;0.10;0.10;;;;;;;43.28;31.11;99410.91;7394527;19;20010;-83
2023/08/29 06:57:36;;;;;;;1.02;0.20;;;;;;;42.96;30.82;99420.13;7390078;19;20014;-84
2023/08/29 07:00:03;;;;;;;0.57;0.30;;;;;;;44.00;29.73;99417.34;7388604;19;20010;-83
2023/08/29 07:02:30;;;;;;;0.40;0.40;;;;;;;44.03;29.30;99421.81;7390909;19;20014;-83
2023/08/29 07:04:56;;;;;;;2.65;0.20;;;;;;;43.96;28.64;99423.19;7393718;19;20018;-83
2023/08/29 07:07:22;;;;;;;0.40;0.20;;;;;;;38.47;34.96;99429.34;7389696;19;20522;-85
2023/08/29 07:09:48;;;;;;;1.05;0.25;;;;;;;42.76;30.13;99420.63;7388738;19;20018;-84
2023/08/29 07:12:14;;;;;;;0.10;0.08;;;;;;;43.54;29.02;99420.69;7388714;19;20026;-85
2023/08/29 07:14:40;;;;;;;0.10;0.10;;;;;;;44.06;28.32;99426.19;7392607;19;20019;-83
2023/08/29 07:17:06;;;;;;;0.10;0.10;;;;;;;44.50;27.83;99410.28;7389753;19;20093;-84
2023/08/29 07:19:33;;;;;;;1.30;0.28;;;;;;;44.25;28.25;99413.09;7388455;19;20605;-84
2023/08/29 07:21:59;;;;;;;0.55;0.10;;;;;;;44.24;28.05;99407.94;7392522;19;20418;-84
2023/08/29 07:24:25;;;;;;;3.50;1.05;;;;;;;44.12;28.04;99405.69;7392449;19;20534;-84
2023/08/29 07:26:51;;;;;;;1.17;0.65;;;;;;;44.38;27.72;99405.78;7391477;19;20595;-84
2023/08/29 07:29:19;;;;;;;1.60;0.40;;;;;;;44.66;27.48;99402.22;7387899;19;20512;-85
2023/08/29 07:31:46;;;;;;;1.40;0.30;;;;;;;44.64;27.69;99395.63;7390885;19;20104;-84
2023/08/29 07:34:15;;;;;;;0.38;0.32;;;;;;;44.67;27.44;99386.09;7389554;19;20029;-84
2023/08/29 07:36:42;;;;;;;0.47;0.35;;;;;;;44.44;27.45;99392.63;7387927;19;20026;-84
2023/08/29 07:39:08;;;;;;;1.48;0.30;;;;;;;44.55;27.72;99385.31;7395171;19;20015;-84
2023/08/29 07:41:34;;;;;;;0.10;0.00;;;;;;;44.56;27.31;99386.78;7399010;19;20031;-84
2023/08/29 07:44:00;;;;;;;1.13;0.30;;;;;;;44.48;27.13;99386.75;7399811;19;20018;-84
2023/08/29 07:46:27;;;;;;;1.20;0.30;;;;;;;44.41;27.32;99383.03;7395999;19;20134;-85
2023/08/29 07:48:53;;;;;;;0.88;0.10;;;;;;;43.55;27.75;99386.22;7394601;19;20035;-85
2023/08/29 07:51:19;;;;;;;0.43;0.20;;;;;;;43.42;27.56;99391.25;7395333;19;20014;-84
2023/08/29 07:53:45;;;;;;;2.75;0.93;;;;;;;44.26;27.64;99382.25;7400440;19;20035;-85
2023/08/29 07:56:11;;;;;;;0.68;0.22;;;;;;;44.05;27.60;99388.78;7397107;19;20561;-84
2023/08/29 07:58:37;;;;;;;1.52;0.28;;;;;;;43.83;27.34;99392.28;7399986;19;20025;-84
2023/08/29 08:01:03;;;;;;;0.00;0.00;;;;;;;44.82;26.44;99383.94;7396268;19;20365;-83
2023/08/29 08:03:30;;;;;;;0.10;0.00;;;;;;;33.40;37.47;99406.25;7396139;19;20039;-83
2023/08/29 08:05:56;;;;;;;3.10;0.50;;;;;;;30.63;47.05;99406.75;7396631;19;20043;-84
2023/08/29 08:08:25;;;;;;;0.57;0.35;;;;;;;31.68;45.20;99404.31;7395351;19;20007;-83
2023/08/29 08:10:51;;;;;;;0.47;0.30;;;;;;;43.50;31.00;99390.56;7392995;19;20015;-84
2023/08/29 08:13:17;;;;;;;1.10;0.20;;;;;;;45.04;28.80;99381.03;7397645;19;20108;-84
2023/08/29 08:15:44;;;;;;;0.17;0.17;;;;;;;45.40;27.59;99375.16;7398189;19;20015;-83
2023/08/29 08:18:10;;;;;;;0.43;0.20;;;;;;;45.86;27.03;99365.53;7398217;19;20046;-83
2023/08/29 08:20:36;;;;;;;0.25;0.25;;;;;;;45.93;26.85;99358.19;7394325;19;20026;-83
2023/08/29 08:23:03;;;;;;;0.55;0.30;;;;;;;46.08;26.27;99361.78;7397729;19;20015;-83
2023/08/29 08:25:29;;;;;;;0.73;0.20;;;;;;;46.36;25.73;99361.69;7400795;19;20018;-84
2023/08/29 08:27:56;;;;;;;0.63;0.28;;;;;;;46.45;25.34;99357.22;7396024;19;20039;-84
2023/08/29 08:30:22;;;;;;;11.40;0.45;;;;;;;46.28;25.30;99358.78;7393508;19;20476;-84
2023/08/29 08:32:48;;;;;;;0.20;0.10;;;;;;;45.84;25.63;99351.56;7399497;19;20040;-84
2023/08/29 08:35:14;;;;;;;1.38;0.40;;;;;;;45.33;25.66;99341.34;7411433;19;20015;-85
2023/08/29 08:37:41;;;;;;;1.25;0.20;;;;;;;44.93;26.44;99336.19;7407745;19;20017;-85
2023/08/29 08:40:10;;;;;;;0.30;0.20;;;;;;;45.08;25.96;99339.84;7401067;19;20014;-85
2023/08/29 08:42:39;;;;;;;1.05;0.40;;;;;;;45.32;25.72;99336.94;7396229;19;20025;-84
2023/08/29 08:45:07;;;;;;;1.45;0.10;;;;;;;45.51;25.24;99344.25;7399746;19;20029;-84
2023/08/29 08:47:37;;;;;;;0.35;0.30;;;;;;;45.43;25.41;99344.25;7394564;19;20027;-83
2023/08/29 08:50:04;;;;;;;0.55;0.25;;;;;;;44.93;25.64;99347.94;7391754;19;20050;-84
2023/08/29 08:52:33;;;;;;;3.67;0.52;;;;;;;45.41;25.12;99338.38;7396717;19;20018;-84
2023/08/29 08:54:59;;;;;;;0.10;0.10;;;;;;;45.60;25.19;99345.00;7399219;19;20018;-83
2023/08/29 08:57:25;;;;;;;2.10;0.13;;;;;;;45.70;24.96;99333.22;7402261;19;20029;-84
2023/08/29 08:59:51;;;;;;;1.40;0.55;;;;;;;45.86;24.98;99344.91;7404188;19;20035;-82
2023/08/29 09:02:18;;;;;;;0.43;0.10;;;;;;;46.00;24.71;99344.91;7399039;19;20497;-83
2023/08/29 09:04:44;;;;;;;0.30;0.10;;;;;;;45.68;25.09;99348.66;7395527;19;20035;-84
2023/08/29 09:07:10;;;;;;;1.65;0.20;;;;;;;45.93;24.86;99351.56;7397431;19;20025;-84
2023/08/29 09:09:36;;;;;;;3.60;0.55;;;;;;;45.87;24.72;99336.81;7391844;19;20055;-84
2023/08/29 09:12:03;;;;;;;3.38;0.70;;;;;;;45.73;25.55;99341.28;7391891;19;20428;-83
2023/08/29 09:14:31;;;;;;;0.30;0.00;;;;;;;45.56;25.01;99339.84;7393721;19;20044;-83
2023/08/29 09:17:04;;;;;;;0.30;0.10;;;;;;;35.52;33.58;99353.69;7390900;19;20358;-84
2023/08/29 09:19:34;;;;;;;1.58;0.50;;;;;;;29.10;43.36;99362.53;7395649;19;20010;-84
2023/08/29 09:22:00;;;;;;;15.63;0.50;;;;;;;22.42;100.00;99379.06;7396750;19;20141;-84
2023/08/29 09:24:36;;;;;;;1.92;0.47;;;;;;;22.50;100.00;99374.13;7395489;19;20777;-84
2023/08/29 09:27:06;;;;;;;1.42;0.17;;;;;;;19.43;100.00;99373.53;7393559;19;20015;-85
2023/08/29 09:29:33;;;;;;;8.05;0.43;;;;;;;17.93;100.00;99369.31;7393445;19;20472;-84
2023/08/29 09:32:00;;;;;;;2.70;0.28;;;;;;;17.71;100.00;99369.69;7392660;19;20018;-84
2023/08/29 09:34:29;;;;;;;2.40;0.38;;;;;;;17.78;100.00;99367.00;7391743;19;20014;-84
2023/08/29 09:37:03;;;;;;;1.75;0.10;;;;;;;18.67;100.00;99363.34;7392114;19;20010;-84
2023/08/29 09:39:29;;;;;;;3.03;0.73;;;;;;;21.07;100.00;99357.66;7392815;19;20022;-84
2023/08/29 09:42:06;;;;;;;0.25;0.20;;;;;;;21.19;100.00;99354.50;7392498;19;20744;-83
2023/08/29 09:44:40;;;;;;;2.90;0.88;;;;;;;22.05;100.00;99345.78;7394242;19;20022;-84
2023/08/29 09:47:09;;;;;;;3.50;0.32;;;;;;;20.38;100.00;99361.41;7393180;19;20016;-84
2023/08/29 09:49:47;;;;;;;0.25;0.20;;;;;;;18.32;100.00;99346.09;7391816;19;20019;-84
2023/08/29 09:52:14;;;;;;;1.17;0.47;;;;;;;18.16;100.00;99348.66;7392009;19;20017;-84
2023/08/29 09:54:46;;;;;;;1.45;0.32;;;;;;;18.56;100.00;99345.91;7394232;19;20021;-85
2023/08/29 09:57:15;;;;;;;0.57;0.40;;;;;;;18.11;100.00;99349.53;7390858;19;20082;-85
2023/08/29 09:59:43;;;;;;;0.52;0.10;;;;;;;18.14;100.00;99348.44;7391923;19;20029;-85
2023/08/29 10:02:13;;;;;;;0.20;0.10;;;;;;;17.62;100.00;99345.50;7390926;19;20024;-85
2023/08/29 10:04:49;;;;;;;1.58;0.40;;;;;;;17.62;100.00;99351.13;7393586;19;20018;-84
2023/08/29 10:07:20;;;;;;;1.95;0.63;;;;;;;18.47;100.00;99358.38;7396379;19;20011;-84
2023/08/29 10:09:47;;;;;;;1.65;0.57;;;;;;;17.59;100.00;99351.44;7391143;19;20014;-84
2023/08/29 10:12:14;;;;;;;2.25;0.68;;;;;;;17.39;100.00;99355.53;7389926;19;20670;-84
2023/08/29 10:14:43;;;;;;;0.40;0.10;;;;;;;17.47;100.00;99358.50;7390349;19;20018;-84
2023/08/29 10:17:10;;;;;;;3.28;0.40;;;;;;;17.46;100.00;99354.94;7390340;19;20014;-85
2023/08/29 10:19:37;;;;;;;1.58;0.40;;;;;;;17.72;100.00;99349.44;7393731;19;20093;-85
2023/08/29 10:22:07;;;;;;;0.60;0.52;;;;;;;17.53;100.00;99348.72;7393198;19;20035;-85
2023/08/29 10:24:39;;;;;;;0.60;0.20;;;;;;;36.66;59.55;99335.50;7392171;19;20026;-84
2023/08/29 10:27:05;;;;;;;1.67;0.30;;;;;;;41.52;40.73;99318.00;7392629;19;20084;-86
2023/08/29 10:29:32;;;;;;;4.20;1.65;;;;;;;24.79;100.00;99344.53;7390130;19;20019;-85
2023/08/29 10:32:01;;;;;;;1.65;0.50;;;;;;;24.91;100.00;99342.66;7393801;19;20149;-85
2023/08/29 10:34:28;;;;;;;2.13;0.68;;;;;;;39.42;49.71;99329.19;7390384;19;20014;-86
2023/08/29 10:36:56;;;;;;;3.70;0.93;;;;;;;39.99;45.54;99321.06;7391697;19;20011;-84
2023/08/29 10:39:25;;;;;;;3.88;0.70;;;;;;;33.39;45.68;99333.34;7390141;19;20033;-86
2023/08/29 10:41:56;;;;;;;1.85;0.60;;;;;;;40.61;40.65;99323.75;7389601;19;20014;-85
2023/08/29 10:44:43;;;;;;;6.80;1.42;;;;;;;42.92;34.81;99317.53;7394427;19;20460;-85
2023/08/29 10:47:26;;;;;;;1.65;0.10;;;;;;;43.55;33.01;99316.56;7390165;19;20013;-85
2023/08/29 10:50:02;;;;;;;3.10;0.65;;;;;;;44.22;32.09;99308.09;7391003;19;20038;-85
2023/08/29 10:52:40;;;;;;;7.05;1.17;;;;;;;45.20;30.49;99304.59;7394903;19;20015;-85
2023/08/29 10:55:31;;;;;;;1.77;0.63;;;;;;;43.46;32.09;99309.16;7390525;19;20028;-85
2023/08/29 10:58:00;;;;;;;3.55;0.80;;;;;;;44.88;29.88;99298.69;7391402;19;20014;-85
2023/08/29 11:00:53;;;;;;;3.45;0.60;;;;;;;44.88;29.38;99299.41;7390727;19;20018;-85
2023/08/29 11:03:44;;;;;;;2.22;0.93;;;;;;;44.97;28.63;99294.28;7389983;19;20025;-85
2023/08/29 11:06:10;;;;;;;0.30;0.25;;;;;;;41.26;30.49;99297.13;7390851;19;20010;-85
2023/08/29 11:08:37;;;;;;;0.40;0.40;;;;;;;22.73;100.00;99322.25;7393708;19;20038;-84
2023/08/29 11:11:19;;;;;;;0.98;0.55;;;;;;;21.48;100.00;99327.59;7391266;19;20014;-85
2023/08/29 11:14:06;;;;;;;0.90;0.75;;;;;;;21.43;100.00;99326.44;7390511;19;20425;-85
2023/08/29 11:16:37;;;;;;;2.38;0.30;;;;;;;18.75;100.00;99329.59;7390932;19;20021;-84
2023/08/29 11:19:30;;;;;;;3.03;0.40;;;;;;;25.48;100.00;99308.13;7391366;19;20358;-80
2023/08/29 11:22:09;;;;;;;0.38;0.38;;;;;;;40.02;44.55;99281.75;7389006;19;20017;-89
2023/08/29 11:27:38;;;;;;;1.00;0.40;;;;;;;41.92;34.73;99287.81;7389613;19;20010;-59
2023/08/29 11:30:05;;;;;;;2.20;0.90;;;;;;;34.82;40.62;99292.88;7392040;19;20010;-59
2023/08/29 11:32:37;;;;;;;0.30;0.13;;;;;;;21.37;100.00;99316.59;7393661;19;20459;-59
2023/08/29 11:35:34;;;;;;;2.45;0.40;;;;;;;22.16;100.00;99317.03;7392663;19;20021;-59
2023/08/29 11:38:03;;;;;;;0.22;0.13;;;;;;;38.37;49.46;99298.09;7391729;19;20015;-59